METAR Data
IDs: Format: Raw Decoded Include TAF

Data at: 0958 UTC 07 Dec 2022

METAR for:KORD (Chicago/O'Hare Intl, IL, US)
Text:KORD 070951Z 28004KT 1SM R10L/P6000FT BR OVC003 03/02 A3012 RMK AO2 SLP205 T00330017
Temperature: 3.3°C ( 38°F)
Dewpoint: 1.7°C ( 35°F) [RH = 89%]
Pressure (altimeter):30.12 inches Hg (1020.1 mb) [Sea level pressure: 1020.5 mb]
Winds:from the W (280 degrees) at 5 MPH (4 knots; 2.1 m/s)
Visibility: 1.00 sm ( 1.61 km)
Ceiling:300 feet AGL
Clouds: overcast cloud deck at 300 feet AGL
Weather:BR (mist)